GCHI/VDE METAR and TAF weather

Enter ICAO airport designator
Station Type Date Time Source
GCHI METAR 2019/06/17 07:00 UTC NOAA

GCHI 170700Z 16003KT 100V190 CAVOK 21/16 Q1019


Station Type Date Time Source
GCHI Decoded METAR 2019/06/17 07:00 UTC NOAA

Hierro / Aeropuerto, Spain (GCHI) 27-49N 017-53W 32M
Jun 17, 2019 - 03:00 AM EDT / 2019.06.17 0700 UTC
Wind: from the SSE (160 degrees) at 3 MPH (3 KT) (direction variable):0
Visibility: greater than 7 mile(s):0
Temperature: 69 F (21 C)
Dew Point: 60 F (16 C)
Relative Humidity: 73%
Pressure (altimeter): 30.09 in. Hg (1019 hPa)
ob: GCHI 170700Z 16003KT 100V190 CAVOK 21/16 Q1019
cycle: 7

Station Type Date Time Source
GCHI TAF 2019/06/17 03:00 UTC NOAA

TAF GCHI 170200Z 1703/1803 30005KT 9999 FEW030 TX25/1714Z TN18/1706Z PROB40
TEMPO 1709/1716 12010KT

Example: see airport list